createdAt,value
2018-08-03T01:00:31.946Z,0.00
2018-08-03T01:01:31.885Z,0.00
2018-08-03T01:02:31.934Z,0.00
2018-08-03T01:03:31.860Z,0.00
2018-08-03T01:04:31.851Z,0.00
2018-08-03T01:05:31.852Z,0.00
2018-08-03T01:06:31.829Z,0.00
2018-08-03T01:07:31.877Z,0.00
2018-08-03T01:08:31.827Z,0.00
2018-08-03T01:09:31.797Z,0.00
2018-08-03T01:10:31.786Z,0.00
2018-08-03T01:11:31.777Z,0.00
2018-08-03T01:12:31.840Z,0.00
2018-08-03T01:13:31.760Z,0.00
2018-08-03T01:14:31.740Z,0.00
2018-08-03T01:15:31.753Z,0.00
2018-08-03T01:16:31.721Z,0.00
2018-08-03T01:17:31.753Z,0.00
2018-08-03T01:18:31.715Z,0.00
2018-08-03T01:19:31.689Z,0.00
2018-08-03T01:20:31.676Z,0.00
2018-08-03T01:21:31.688Z,0.00
2018-08-03T01:22:31.708Z,0.00
2018-08-03T01:23:31.642Z,0.00
2018-08-03T01:24:31.633Z,0.00
2018-08-03T01:25:31.625Z,0.00
2018-08-03T01:26:31.615Z,0.00
2018-08-03T01:27:31.658Z,0.00
2018-08-03T01:28:31.612Z,0.00
2018-08-03T01:29:31.579Z,0.00
2018-08-03T01:30:31.573Z,0.00
2018-08-03T01:31:31.560Z,0.00
2018-08-03T01:32:31.592Z,0.00
2018-08-03T01:33:31.536Z,0.00
2018-08-03T01:34:31.528Z,0.00
2018-08-03T01:35:31.539Z,0.00
2018-08-03T01:36:31.508Z,0.00
2018-08-03T01:37:31.538Z,0.00
2018-08-03T01:38:31.482Z,0.00
2018-08-03T01:39:31.477Z,0.00
2018-08-03T01:40:31.465Z,0.00
2018-08-03T01:41:31.450Z,0.00
2018-08-03T01:42:31.487Z,0.00
2018-08-03T01:43:31.435Z,0.00
2018-08-03T01:44:31.420Z,0.00
2018-08-03T01:45:31.407Z,0.00
2018-08-03T01:46:31.398Z,0.00
2018-08-03T01:47:31.431Z,0.00
2018-08-03T01:48:31.376Z,0.00
2018-08-03T01:49:31.381Z,0.00
2018-08-03T01:50:31.354Z,0.00
2018-08-03T01:51:31.395Z,0.00
2018-08-03T01:52:31.379Z,0.00
2018-08-03T01:53:31.361Z,0.00
2018-08-03T01:54:31.316Z,0.00
2018-08-03T01:55:31.300Z,0.00
2018-08-03T01:56:31.291Z,0.00
2018-08-03T01:57:31.325Z,0.00
2018-08-03T01:58:31.273Z,0.00
2018-08-03T01:59:31.260Z,0.00
2018-08-03T02:00:31.259Z,0.00
2018-08-03T02:01:31.236Z,0.00
2018-08-03T02:02:31.277Z,0.00
2018-08-03T02:03:31.215Z,0.00
2018-08-03T02:04:31.204Z,0.00
2018-08-03T02:05:31.202Z,0.00
2018-08-03T02:06:31.186Z,0.00
2018-08-03T02:07:31.236Z,0.00
2018-08-03T02:08:31.162Z,0.00
2018-08-03T02:09:31.151Z,0.00
2018-08-03T02:10:31.140Z,0.00
2018-08-03T02:11:31.130Z,0.00
2018-08-03T02:12:31.599Z,0.00
2018-08-03T02:13:31.107Z,0.00
2018-08-03T02:14:32.027Z,0.00
2018-08-03T02:15:31.095Z,0.00
2018-08-03T02:16:31.075Z,0.00
2018-08-03T02:17:31.113Z,0.00
2018-08-03T02:18:31.052Z,0.00
2018-08-03T02:19:31.050Z,0.00
2018-08-03T02:20:31.032Z,0.00
2018-08-03T02:21:31.021Z,0.00
2018-08-03T02:22:31.054Z,0.00
2018-08-03T02:23:31.005Z,0.00
2018-08-03T02:24:30.989Z,0.00
2018-08-03T02:25:30.977Z,0.00
2018-08-03T02:26:30.973Z,0.00
2018-08-03T02:27:31.011Z,0.00
2018-08-03T02:28:30.949Z,0.00
2018-08-03T02:29:30.940Z,0.00
2018-08-03T02:30:30.926Z,0.00
2018-08-03T02:31:30.913Z,0.00
2018-08-03T02:32:30.950Z,0.00
2018-08-03T02:33:30.893Z,0.00
2018-08-03T02:34:30.886Z,0.00
2018-08-03T02:35:30.871Z,0.00
2018-08-03T02:36:30.861Z,0.00
2018-08-03T02:37:30.897Z,0.00
2018-08-03T02:38:30.838Z,0.00
2018-08-03T02:39:30.830Z,0.00
2018-08-03T02:40:31.543Z,0.00
2018-08-03T02:41:30.804Z,0.00
2018-08-03T02:42:30.843Z,0.00
2018-08-03T02:43:30.787Z,0.00
2018-08-03T02:44:30.773Z,0.00
2018-08-03T02:45:30.766Z,0.00
2018-08-03T02:46:30.760Z,0.00
2018-08-03T02:47:30.786Z,0.00
2018-08-03T02:48:30.735Z,0.00
2018-08-03T02:49:30.720Z,0.00
2018-08-03T02:50:30.707Z,0.00
2018-08-03T02:51:30.701Z,0.00
2018-08-03T02:52:30.734Z,0.00
2018-08-03T02:53:30.676Z,0.00
2018-08-03T02:54:30.664Z,0.00
2018-08-03T02:55:30.655Z,0.00
2018-08-03T02:56:30.642Z,0.00
2018-08-03T02:57:31.093Z,0.00
2018-08-03T02:58:30.622Z,0.00
2018-08-03T02:59:30.636Z,0.00
2018-08-03T03:00:30.600Z,0.00
2018-08-03T03:01:30.595Z,0.00
2018-08-03T03:02:30.624Z,0.00
2018-08-03T03:03:30.589Z,0.00
2018-08-03T03:04:30.557Z,0.00
2018-08-03T03:05:30.548Z,0.00
2018-08-03T03:06:30.536Z,0.00
2018-08-03T03:07:30.620Z,0.00
2018-08-03T03:08:30.531Z,0.00
2018-08-03T03:09:30.516Z,0.00
2018-08-03T03:10:30.492Z,0.00
2018-08-03T03:11:30.481Z,0.00
2018-08-03T03:12:30.495Z,0.00
2018-08-03T03:13:30.506Z,0.00
2018-08-03T03:14:30.458Z,0.00
2018-08-03T03:15:30.438Z,0.00
2018-08-03T03:16:30.427Z,0.00
2018-08-03T03:17:30.417Z,0.00
2018-08-03T03:18:30.470Z,0.00
2018-08-03T03:19:30.415Z,0.00
2018-08-03T03:20:30.396Z,0.00
2018-08-03T03:21:30.376Z,0.00
2018-08-03T03:22:30.372Z,0.00
2018-08-03T03:23:30.408Z,0.00
2018-08-03T03:24:30.340Z,0.00
2018-08-03T03:25:30.332Z,0.00
2018-08-03T03:26:30.329Z,0.00
2018-08-03T03:27:30.335Z,0.00
2018-08-03T03:28:30.349Z,0.00
2018-08-03T03:29:30.287Z,0.00
2018-08-03T03:30:30.290Z,0.00
2018-08-03T03:31:30.266Z,0.00
2018-08-03T03:32:30.317Z,4.00
2018-08-03T03:33:30.297Z,4.00
2018-08-03T03:34:30.233Z,0.00
2018-08-03T03:35:30.229Z,4.00
2018-08-03T03:36:30.213Z,4.00
2018-08-03T03:37:30.223Z,4.00
2018-08-03T03:38:30.245Z,4.00
2018-08-03T03:39:30.179Z,4.00
2018-08-03T03:40:30.183Z,4.00
2018-08-03T03:41:30.172Z,4.00
2018-08-03T03:42:30.260Z,8.00
2018-08-03T03:43:30.207Z,8.00
2018-08-03T03:44:30.129Z,8.00
2018-08-03T03:45:30.125Z,8.00
2018-08-03T03:46:30.115Z,8.00
2018-08-03T03:47:30.102Z,16.00
2018-08-03T03:48:30.127Z,16.00
2018-08-03T03:49:30.071Z,20.00
2018-08-03T03:50:30.091Z,16.00
2018-08-03T03:51:30.050Z,20.00
2018-08-03T03:52:30.039Z,24.00
2018-08-03T03:53:30.082Z,28.00
2018-08-03T03:54:30.023Z,28.00
2018-08-03T03:55:30.013Z,32.00
2018-08-03T03:56:30.023Z,32.00
2018-08-03T03:57:29.998Z,40.00
2018-08-03T03:58:30.024Z,40.00
2018-08-03T03:59:29.994Z,44.00
2018-08-03T04:00:29.956Z,48.00
2018-08-03T04:01:29.942Z,52.00
2018-08-03T04:02:29.943Z,56.00
2018-08-03T04:03:31.566Z,60.00
2018-08-03T04:04:29.925Z,64.00
2018-08-03T04:05:29.901Z,72.00
2018-08-03T04:06:29.884Z,72.00
2018-08-03T04:07:29.878Z,80.00
2018-08-03T04:08:29.932Z,84.00
2018-08-03T04:09:29.851Z,92.00
2018-08-03T04:10:29.842Z,96.00
2018-08-03T04:11:29.832Z,104.00
2018-08-03T04:12:29.818Z,108.00
2018-08-03T04:13:29.881Z,116.00
2018-08-03T04:14:29.809Z,120.00
2018-08-03T04:15:29.790Z,124.00
2018-08-03T04:16:29.797Z,132.00
2018-08-03T04:17:29.830Z,140.00
2018-08-03T04:18:29.767Z,148.00
2018-08-03T04:19:29.795Z,152.00
2018-08-03T04:20:29.731Z,160.00
2018-08-03T04:21:29.719Z,168.00
2018-08-03T04:22:29.716Z,176.00
2018-08-03T04:23:29.703Z,180.00
2018-08-03T04:24:29.741Z,192.00
2018-08-03T04:25:29.734Z,196.00
2018-08-03T04:26:29.664Z,208.00
2018-08-03T04:27:29.654Z,212.00
2018-08-03T04:28:29.644Z,224.00
2018-08-03T04:29:29.681Z,232.00
2018-08-03T04:30:29.621Z,240.00
2018-08-03T04:31:29.617Z,244.00
2018-08-03T04:32:29.617Z,256.00
2018-08-03T04:33:29.610Z,264.00
2018-08-03T04:34:29.623Z,272.00
2018-08-03T04:35:29.566Z,280.00
2018-08-03T04:36:29.565Z,288.00
2018-08-03T04:37:29.545Z,300.00
2018-08-03T04:38:29.532Z,312.00
2018-08-03T04:39:29.570Z,316.00
2018-08-03T04:40:29.552Z,324.00
2018-08-03T04:41:29.503Z,336.00
2018-08-03T04:42:29.545Z,340.00
2018-08-03T04:43:29.478Z,352.00
2018-08-03T04:44:29.529Z,360.00
2018-08-03T04:45:29.454Z,368.00
2018-08-03T04:46:29.445Z,380.00
2018-08-03T04:47:29.441Z,384.00
2018-08-03T04:48:29.429Z,396.00
2018-08-03T04:49:29.459Z,404.00
2018-08-03T04:50:29.404Z,416.00
2018-08-03T04:51:29.390Z,428.00
2018-08-03T04:52:29.378Z,432.00
2018-08-03T04:53:29.370Z,444.00
2018-08-03T04:54:29.402Z,456.00
2018-08-03T04:55:29.346Z,468.00
2018-08-03T04:56:29.344Z,476.00
2018-08-03T04:57:29.324Z,484.00
2018-08-03T04:58:29.314Z,496.00
2018-08-03T04:59:29.348Z,500.00
2018-08-03T05:00:29.293Z,512.00
2018-08-03T05:01:29.327Z,520.00
2018-08-03T05:02:29.272Z,528.00
2018-08-03T05:03:29.262Z,536.00
2018-08-03T05:04:29.297Z,544.00
2018-08-03T05:05:29.237Z,552.00
2018-08-03T05:06:29.227Z,560.00
2018-08-03T05:07:29.235Z,568.00
2018-08-03T05:08:29.204Z,576.00
2018-08-03T05:09:29.240Z,592.00
2018-08-03T05:10:29.184Z,592.00
2018-08-03T05:11:29.186Z,604.00
2018-08-03T05:12:29.162Z,616.00
2018-08-03T05:13:29.168Z,620.00
2018-08-03T05:14:29.198Z,636.00
2018-08-03T05:15:29.216Z,644.00
2018-08-03T05:16:29.123Z,660.00
2018-08-03T05:17:29.108Z,668.00
2018-08-03T05:18:29.102Z,684.00
2018-08-03T05:19:29.138Z,712.00
2018-08-03T05:20:29.079Z,708.00
2018-08-03T05:21:29.065Z,720.00
2018-08-03T05:22:29.056Z,728.00
2018-08-03T05:23:29.044Z,748.00
2018-08-03T05:24:29.088Z,780.00
2018-08-03T05:25:29.024Z,832.00
2018-08-03T05:26:29.023Z,860.00
2018-08-03T05:27:29.009Z,852.00
2018-08-03T05:28:28.989Z,828.00
2018-08-03T05:29:29.027Z,824.00
2018-08-03T05:30:28.990Z,812.00
2018-08-03T05:31:28.956Z,812.00
2018-08-03T05:32:28.946Z,820.00
2018-08-03T05:33:28.941Z,832.00
2018-08-03T05:34:28.969Z,836.00
2018-08-03T05:35:28.951Z,852.00
2018-08-03T05:36:28.903Z,856.00
2018-08-03T05:37:28.893Z,860.00
2018-08-03T05:38:28.881Z,868.00
2018-08-03T05:39:28.915Z,876.00
2018-08-03T05:40:28.858Z,896.00
2018-08-03T05:41:28.858Z,904.00
2018-08-03T05:42:28.848Z,916.00
2018-08-03T05:43:28.828Z,920.00
2018-08-03T05:44:28.868Z,940.00
2018-08-03T05:45:28.863Z,944.00
2018-08-03T05:46:28.796Z,952.00
2018-08-03T05:47:28.798Z,968.00
2018-08-03T05:48:28.782Z,984.00
2018-08-03T05:49:28.815Z,992.00
2018-08-03T05:50:28.756Z,1012.00
2018-08-03T05:51:28.742Z,1036.00
2018-08-03T05:52:28.757Z,1040.00
2018-08-03T05:53:28.726Z,1040.00
2018-08-03T05:54:28.755Z,1040.00
2018-08-03T05:55:28.702Z,1056.00
2018-08-03T05:56:28.691Z,1088.00
2018-08-03T05:57:28.679Z,1136.00
2018-08-03T05:58:28.668Z,1184.00
2018-08-03T05:59:28.706Z,1188.00
2018-08-03T06:00:28.644Z,1192.00
2018-08-03T06:01:28.629Z,1196.00
2018-08-03T06:02:28.625Z,1172.00
2018-08-03T06:03:28.608Z,1208.00
2018-08-03T06:04:28.640Z,1308.00
2018-08-03T06:05:28.592Z,1448.00
2018-08-03T06:06:28.578Z,1620.00
2018-08-03T06:07:28.565Z,1492.00
2018-08-03T06:08:28.560Z,1340.00
2018-08-03T06:09:28.609Z,1208.00
2018-08-03T06:10:28.535Z,1160.00
2018-08-03T06:11:28.522Z,1184.00
2018-08-03T06:12:28.508Z,1220.00
2018-08-03T06:13:28.500Z,1240.00
2018-08-03T06:14:28.549Z,1228.00
2018-08-03T06:15:28.477Z,1248.00
2018-08-03T06:16:28.471Z,1248.00
2018-08-03T06:17:28.507Z,1308.00
2018-08-03T06:18:28.447Z,1296.00
2018-08-03T06:19:28.494Z,1288.00
2018-08-03T06:20:28.428Z,1288.00
2018-08-03T06:21:28.453Z,1300.00
2018-08-03T06:22:28.451Z,1380.00
2018-08-03T06:23:28.391Z,1364.00
2018-08-03T06:24:28.379Z,1340.00
2018-08-03T06:25:28.571Z,1476.00
2018-08-03T06:26:28.355Z,1772.00
2018-08-03T06:27:28.346Z,2040.00
2018-08-03T06:28:28.450Z,1796.00
2018-08-03T06:29:28.334Z,1448.00
2018-08-03T06:30:28.360Z,1436.00
2018-08-03T06:31:28.303Z,1520.00
2018-08-03T06:32:28.288Z,1580.00
2018-08-03T06:33:28.281Z,1748.00
2018-08-03T06:34:28.277Z,2164.00
2018-08-03T06:35:28.299Z,2828.00
2018-08-03T06:36:28.245Z,2808.00
2018-08-03T06:37:28.232Z,2396.00
2018-08-03T06:38:28.238Z,2180.00
2018-08-03T06:39:28.213Z,1916.00
2018-08-03T06:40:28.245Z,1768.00
2018-08-03T06:41:28.189Z,1656.00
2018-08-03T06:42:28.235Z,1808.00
2018-08-03T06:43:28.185Z,1924.00
2018-08-03T06:44:28.159Z,2080.00
2018-08-03T06:45:28.208Z,2628.00
2018-08-03T06:46:28.134Z,3520.00
2018-08-03T06:47:28.128Z,3848.00
2018-08-03T06:48:28.157Z,4064.00
2018-08-03T06:49:28.102Z,3732.00
2018-08-03T06:50:28.140Z,2688.00
2018-08-03T06:51:28.089Z,2160.00
2018-08-03T06:52:28.070Z,2188.00
2018-08-03T06:53:28.061Z,2724.00
2018-08-03T06:54:28.050Z,2620.00
2018-08-03T06:55:28.082Z,2220.00
2018-08-03T06:56:28.027Z,2220.00
2018-08-03T06:57:28.022Z,1896.00
2018-08-03T06:58:28.017Z,1904.00
2018-08-03T06:59:28.000Z,1860.00
2018-08-03T07:00:28.050Z,1708.00
2018-08-03T07:01:27.977Z,1676.00
2018-08-03T07:02:27.980Z,1656.00
2018-08-03T07:03:27.966Z,1660.00
2018-08-03T07:04:27.982Z,1732.00
2018-08-03T07:05:27.976Z,1748.00
2018-08-03T07:06:27.927Z,1676.00
2018-08-03T07:07:27.910Z,1696.00
2018-08-03T07:08:27.948Z,1696.00
2018-08-03T07:09:27.885Z,1696.00
2018-08-03T07:10:27.926Z,1704.00
2018-08-03T07:11:27.873Z,1720.00
2018-08-03T07:12:27.855Z,1860.00
2018-08-03T07:13:27.846Z,1964.00
2018-08-03T07:14:27.926Z,1916.00
2018-08-03T07:15:27.891Z,1916.00
2018-08-03T07:16:27.826Z,1896.00
2018-08-03T07:17:27.802Z,1924.00
2018-08-03T07:18:27.788Z,2100.00
2018-08-03T07:19:27.786Z,2152.00
2018-08-03T07:20:27.945Z,2204.00
2018-08-03T07:21:27.757Z,1968.00
2018-08-03T07:22:27.750Z,2020.00
2018-08-03T07:23:27.737Z,2360.00
2018-08-03T07:24:27.729Z,1976.00
2018-08-03T07:25:27.778Z,2240.00
2018-08-03T07:26:27.705Z,2372.00
2018-08-03T07:27:27.694Z,1880.00
2018-08-03T07:28:27.683Z,1844.00
2018-08-03T07:29:27.671Z,1812.00
2018-08-03T07:30:27.708Z,1888.00
2018-08-03T07:31:27.656Z,1852.00
2018-08-03T07:32:27.639Z,1840.00
2018-08-03T07:33:27.629Z,1856.00
2018-08-03T07:34:27.625Z,1868.00
2018-08-03T07:35:27.661Z,1892.00
2018-08-03T07:36:27.597Z,1904.00
2018-08-03T07:37:27.586Z,1896.00
2018-08-03T07:38:27.576Z,1876.00
2018-08-03T07:39:27.568Z,1880.00
2018-08-03T07:40:27.599Z,1896.00
2018-08-03T07:41:27.542Z,1928.00
2018-08-03T07:42:27.540Z,1948.00
2018-08-03T07:43:27.560Z,2116.00
2018-08-03T07:44:27.508Z,2280.00
2018-08-03T07:45:27.547Z,2488.00
2018-08-03T07:46:27.490Z,2308.00
2018-08-03T07:47:27.476Z,2004.00
2018-08-03T07:48:27.474Z,1992.00
2018-08-03T07:49:27.459Z,1992.00
2018-08-03T07:50:27.494Z,2020.00
2018-08-03T07:51:27.436Z,2060.00
2018-08-03T07:52:27.431Z,2072.00
2018-08-03T07:53:27.417Z,2104.00
2018-08-03T07:54:27.416Z,2136.00
2018-08-03T07:55:27.437Z,2156.00
2018-08-03T07:56:27.384Z,2132.00
2018-08-03T07:57:27.372Z,2308.00
2018-08-03T07:58:27.367Z,2104.00
2018-08-03T07:59:27.353Z,2140.00
2018-08-03T08:00:27.387Z,2204.00
2018-08-03T08:01:27.325Z,2228.00
2018-08-03T08:02:27.323Z,2168.00
2018-08-03T08:03:27.304Z,2228.00
2018-08-03T08:04:27.297Z,2396.00
2018-08-03T08:05:27.331Z,2596.00
2018-08-03T08:06:27.289Z,3772.00
2018-08-03T08:07:27.262Z,4396.00
2018-08-03T08:08:27.258Z,4012.00
2018-08-03T08:09:27.284Z,2604.00
2018-08-03T08:10:27.280Z,2228.00
2018-08-03T08:11:27.226Z,2236.00
2018-08-03T08:12:27.208Z,2228.00
2018-08-03T08:13:27.198Z,2244.00
2018-08-03T08:14:27.186Z,2256.00
2018-08-03T08:15:27.229Z,2284.00
2018-08-03T08:16:27.168Z,2528.00
2018-08-03T08:17:27.157Z,2476.00
2018-08-03T08:18:27.144Z,2616.00
2018-08-03T08:19:27.146Z,2452.00
2018-08-03T08:20:27.123Z,2500.00
2018-08-03T08:21:27.160Z,2428.00
2018-08-03T08:22:27.123Z,2380.00
2018-08-03T08:23:27.092Z,2344.00
2018-08-03T08:24:27.083Z,2336.00
2018-08-03T08:25:27.067Z,2320.00
2018-08-03T08:26:27.106Z,2316.00
2018-08-03T08:27:27.047Z,2392.00
2018-08-03T08:28:27.037Z,2464.00
2018-08-03T08:29:27.028Z,2476.00
2018-08-03T08:30:27.014Z,2360.00
2018-08-03T08:31:27.067Z,2356.00
2018-08-03T08:32:27.003Z,2360.00
2018-08-03T08:33:26.988Z,2360.00
2018-08-03T08:34:26.987Z,2356.00
2018-08-03T08:35:26.962Z,2336.00
2018-08-03T08:36:27.023Z,2368.00
2018-08-03T08:37:26.940Z,2372.00
2018-08-03T08:38:26.931Z,2376.00
2018-08-03T08:39:26.920Z,2400.00
2018-08-03T08:40:26.911Z,2532.00
2018-08-03T08:41:26.946Z,1752.00
2018-08-03T08:42:26.887Z,2472.00
2018-08-03T08:43:26.943Z,2472.00
2018-08-03T08:44:26.867Z,2464.00
2018-08-03T08:45:26.857Z,2472.00
2018-08-03T08:46:26.892Z,2488.00
2018-08-03T08:47:26.837Z,2488.00
2018-08-03T08:48:26.822Z,3324.00
2018-08-03T08:49:26.816Z,6424.00
2018-08-03T08:50:26.804Z,2708.00
2018-08-03T08:51:26.838Z,2892.00
2018-08-03T08:52:26.781Z,2528.00
2018-08-03T08:53:26.769Z,3164.00
2018-08-03T08:54:26.757Z,2688.00
2018-08-03T08:55:26.747Z,2588.00
2018-08-03T08:56:26.783Z,2568.00
2018-08-03T08:57:26.727Z,3084.00
2018-08-03T08:58:26.722Z,3080.00
2018-08-03T08:59:26.712Z,6404.00
2018-08-03T09:00:26.692Z,2668.00
2018-08-03T09:01:26.730Z,3520.00
2018-08-03T09:02:26.677Z,2668.00
2018-08-03T09:03:26.662Z,4204.00
2018-08-03T09:04:26.653Z,5148.00
2018-08-03T09:05:26.639Z,4328.00
2018-08-03T09:06:26.674Z,2776.00
2018-08-03T09:07:26.657Z,6600.00
2018-08-03T09:08:26.614Z,5376.00
2018-08-03T09:09:26.596Z,2972.00
2018-08-03T09:10:26.586Z,6804.00
2018-08-03T09:11:26.622Z,9784.00
2018-08-03T09:12:26.567Z,3024.00
2018-08-03T09:13:26.568Z,2284.00
2018-08-03T09:14:26.544Z,6976.00
2018-08-03T09:15:26.532Z,3260.00
2018-08-03T09:16:26.576Z,4308.00
2018-08-03T09:17:26.525Z,2368.00
2018-08-03T09:18:26.534Z,13652.00
2018-08-03T09:19:26.497Z,4000.00
2018-08-03T09:20:26.482Z,2832.00
2018-08-03T09:21:26.535Z,3352.00
2018-08-03T09:22:26.462Z,2828.00
2018-08-03T09:23:26.460Z,2864.00
2018-08-03T09:24:26.465Z,2912.00
2018-08-03T09:25:26.437Z,2952.00
2018-08-03T09:26:26.472Z,2996.00
2018-08-03T09:27:26.406Z,2964.00
2018-08-03T09:28:26.492Z,2996.00
2018-08-03T09:29:26.384Z,3216.00
2018-08-03T09:30:26.374Z,3044.00
2018-08-03T09:31:26.406Z,3044.00
2018-08-03T09:32:26.352Z,3000.00
2018-08-03T09:33:26.353Z,2960.00
2018-08-03T09:34:26.355Z,2968.00
2018-08-03T09:35:26.319Z,3200.00
2018-08-03T09:36:26.396Z,6508.00
2018-08-03T09:37:26.312Z,8724.00
2018-08-03T09:38:26.291Z,3824.00
2018-08-03T09:39:26.276Z,3112.00
2018-08-03T09:40:26.267Z,3100.00
2018-08-03T09:41:26.328Z,3356.00
2018-08-03T09:42:26.247Z,3252.00
2018-08-03T09:43:26.239Z,3168.00
2018-08-03T09:44:26.235Z,3600.00
2018-08-03T09:45:26.212Z,4220.00
2018-08-03T09:46:26.250Z,15424.00
2018-08-03T09:47:26.194Z,14240.00
2018-08-03T09:48:26.180Z,5796.00
2018-08-03T09:49:26.177Z,16032.00
2018-08-03T09:50:26.162Z,14432.00
2018-08-03T09:51:26.214Z,35712.00
2018-08-03T09:52:26.140Z,20992.00
2018-08-03T09:53:26.127Z,4344.00
2018-08-03T09:54:26.134Z,3424.00
2018-08-03T09:55:26.130Z,3264.00
2018-08-03T09:56:26.140Z,3644.00
2018-08-03T09:57:26.137Z,3160.00
2018-08-03T09:58:26.077Z,3284.00
2018-08-03T09:59:26.096Z,3164.00
2018-08-03T10:00:26.057Z,3360.00
2018-08-03T10:01:26.091Z,3284.00
2018-08-03T10:02:26.050Z,3216.00
2018-08-03T10:03:26.029Z,3148.00
2018-08-03T10:04:26.012Z,3156.00
2018-08-03T10:05:26.004Z,3152.00
2018-08-03T10:06:26.038Z,3164.00
2018-08-03T10:07:26.036Z,3156.00
2018-08-03T10:08:25.972Z,3168.00
2018-08-03T10:09:25.963Z,4836.00
2018-08-03T10:10:25.954Z,3352.00
2018-08-03T10:11:25.988Z,3292.00
2018-08-03T10:12:25.932Z,5432.00
2018-08-03T10:13:25.936Z,3256.00
2018-08-03T10:14:25.911Z,3248.00
2018-08-03T10:15:25.948Z,3332.00
2018-08-03T10:16:25.933Z,3376.00
2018-08-03T10:17:25.876Z,3308.00
2018-08-03T10:18:25.877Z,3208.00
2018-08-03T10:19:25.870Z,3208.00
2018-08-03T10:20:25.845Z,3248.00
2018-08-03T10:21:25.900Z,3236.00
2018-08-03T10:22:25.868Z,3252.00
2018-08-03T10:23:25.813Z,3252.00
2018-08-03T10:24:25.810Z,6220.00
2018-08-03T10:25:25.814Z,6684.00
2018-08-03T10:26:25.829Z,3468.00
2018-08-03T10:27:25.771Z,3592.00
2018-08-03T10:28:25.762Z,3604.00
2018-08-03T10:29:25.756Z,3492.00
2018-08-03T10:30:25.763Z,4696.00
2018-08-03T10:31:25.748Z,3808.00
2018-08-03T10:32:25.764Z,3652.00
2018-08-03T10:33:25.723Z,8244.00
2018-08-03T10:34:25.701Z,2872.00
2018-08-03T10:35:25.687Z,5512.00
2018-08-03T10:36:25.678Z,3840.00
2018-08-03T10:37:25.712Z,3592.00
2018-08-03T10:38:25.658Z,4096.00
2018-08-03T10:39:25.664Z,5364.00
2018-08-03T10:40:25.653Z,3352.00
2018-08-03T10:41:25.630Z,4200.00
2018-08-03T10:42:25.661Z,3444.00
2018-08-03T10:43:25.620Z,3584.00
2018-08-03T10:44:25.593Z,3328.00
2018-08-03T10:45:25.583Z,3596.00
2018-08-03T10:46:25.572Z,3944.00
2018-08-03T10:47:25.620Z,10024.00
2018-08-03T10:48:25.557Z,10204.00
2018-08-03T10:49:25.539Z,4560.00
2018-08-03T10:50:25.533Z,4136.00
2018-08-03T10:51:25.522Z,5612.00
2018-08-03T10:52:25.552Z,4292.00
2018-08-03T10:53:25.509Z,3832.00
2018-08-03T10:54:25.488Z,4364.00
2018-08-03T10:55:25.478Z,3640.00
2018-08-03T10:56:25.467Z,3712.00
2018-08-03T10:57:25.512Z,3504.00
2018-08-03T10:58:25.491Z,3988.00
2018-08-03T10:59:25.437Z,4040.00
2018-08-03T11:00:25.423Z,4496.00
2018-08-03T11:01:25.495Z,8012.00
2018-08-03T11:02:25.466Z,13288.00
2018-08-03T11:03:25.390Z,10664.00
2018-08-03T11:04:25.381Z,10680.00
2018-08-03T11:05:25.375Z,3996.00
2018-08-03T11:06:25.360Z,5252.00
2018-08-03T11:07:25.433Z,11108.00
2018-08-03T11:08:25.342Z,11112.00
2018-08-03T11:09:25.327Z,11348.00
2018-08-03T11:10:25.319Z,33632.00
2018-08-03T11:11:25.305Z,1880.00
2018-08-03T11:12:25.345Z,11120.00
2018-08-03T11:13:25.295Z,14748.00
2018-08-03T11:14:25.279Z,10240.00
2018-08-03T11:15:25.265Z,19904.00
2018-08-03T11:16:25.268Z,21728.00
2018-08-03T11:17:25.289Z,21280.00
2018-08-03T11:18:25.234Z,50432.00
2018-08-03T11:19:25.226Z,29536.00
2018-08-03T11:20:25.218Z,46432.00
2018-08-03T11:21:25.200Z,83968.00
2018-08-03T11:22:25.238Z,84512.00
2018-08-03T11:23:25.206Z,85280.00
2018-08-03T11:24:25.175Z,84832.00
2018-08-03T11:25:25.163Z,85952.00
2018-08-03T11:26:25.155Z,86464.00
2018-08-03T11:27:25.193Z,86976.00
2018-08-03T11:28:25.134Z,86144.00
2018-08-03T11:29:25.129Z,85984.00
2018-08-03T11:30:25.111Z,85600.00
2018-08-03T11:31:25.104Z,86976.00
2018-08-03T11:32:25.137Z,77344.00
2018-08-03T11:33:25.085Z,72832.00
2018-08-03T11:34:25.072Z,69568.00
2018-08-03T11:35:25.070Z,76992.00
2018-08-03T11:36:25.056Z,88608.00
2018-08-03T11:37:25.087Z,89696.00
2018-08-03T11:38:25.031Z,84864.00
2018-08-03T11:39:25.025Z,75616.00
2018-08-03T11:40:25.016Z,24864.00
2018-08-03T11:41:25.000Z,86432.00
2018-08-03T11:42:25.045Z,9348.00
2018-08-03T11:43:24.985Z,19584.00
2018-08-03T11:44:24.974Z,16320.00
2018-08-03T11:45:24.963Z,4860.00
2018-08-03T11:46:24.952Z,7628.00
2018-08-03T11:47:24.989Z,9880.00
2018-08-03T11:48:24.950Z,6972.00
2018-08-03T11:49:24.928Z,6408.00
2018-08-03T11:50:24.913Z,7060.00
2018-08-03T11:51:24.910Z,6704.00
2018-08-03T11:52:24.953Z,19808.00
2018-08-03T11:53:24.894Z,17600.00
2018-08-03T11:54:24.876Z,40192.00
2018-08-03T11:55:24.869Z,79872.00
2018-08-03T11:56:24.852Z,89472.00
2018-08-03T11:57:24.893Z,91168.00
2018-08-03T11:58:24.833Z,90272.00
2018-08-03T11:59:24.824Z,88288.00
2018-08-03T12:00:24.811Z,87808.00
2018-08-03T12:01:24.804Z,87040.00
2018-08-03T12:02:24.844Z,89952.00
2018-08-03T12:03:24.782Z,90176.00
2018-08-03T12:04:24.777Z,93600.00
2018-08-03T12:05:24.766Z,92192.00
2018-08-03T12:06:24.808Z,91264.00
2018-08-03T12:07:24.792Z,88800.00
2018-08-03T12:08:24.738Z,85664.00
2018-08-03T12:09:24.741Z,80224.00
2018-08-03T12:10:24.716Z,81408.00
2018-08-03T12:11:24.711Z,90688.00
2018-08-03T12:12:24.762Z,88480.00
2018-08-03T12:13:24.688Z,87808.00
2018-08-03T12:14:24.681Z,87584.00
2018-08-03T12:15:24.667Z,85408.00
2018-08-03T12:16:24.658Z,84768.00
2018-08-03T12:17:24.704Z,87808.00
2018-08-03T12:18:24.641Z,88096.00
2018-08-03T12:19:24.631Z,84768.00
2018-08-03T12:20:24.619Z,84256.00
2018-08-03T12:21:24.623Z,80832.00
2018-08-03T12:22:24.646Z,81088.00
2018-08-03T12:23:24.601Z,86720.00
2018-08-03T12:24:24.595Z,82144.00
2018-08-03T12:25:24.574Z,80480.00
2018-08-03T12:26:24.567Z,81248.00
2018-08-03T12:27:24.617Z,82048.00
2018-08-03T12:28:24.547Z,50208.00
2018-08-03T12:29:24.539Z,3592.00
2018-08-03T12:30:24.532Z,2896.00
2018-08-03T12:31:24.547Z,2760.00
2018-08-03T12:32:24.558Z,2872.00
2018-08-03T12:33:24.504Z,3312.00
2018-08-03T12:34:24.529Z,3940.00
2018-08-03T12:35:24.480Z,4292.00
2018-08-03T12:36:24.475Z,3820.00
2018-08-03T12:37:24.507Z,5760.00
2018-08-03T12:38:24.449Z,6208.00
2018-08-03T12:39:24.441Z,5660.00
2018-08-03T12:40:24.435Z,5324.00
2018-08-03T12:41:24.421Z,4880.00
2018-08-03T12:42:24.474Z,5488.00
2018-08-03T12:43:24.423Z,5472.00
2018-08-03T12:44:24.393Z,4472.00
2018-08-03T12:45:33.833Z,4912.00
2018-08-03T12:46:24.375Z,4964.00
2018-08-03T12:47:24.365Z,4160.00
2018-08-03T12:48:24.405Z,3908.00
2018-08-03T12:49:24.347Z,3856.00
2018-08-03T12:50:24.331Z,4708.00
2018-08-03T12:51:24.324Z,5664.00
2018-08-03T12:52:24.362Z,5964.00
2018-08-03T12:53:24.346Z,5832.00
2018-08-03T12:54:24.296Z,5612.00
2018-08-03T12:55:24.285Z,5508.00
2018-08-03T12:56:24.270Z,5436.00
2018-08-03T12:57:24.261Z,5288.00
2018-08-03T12:58:24.297Z,5324.00
2018-08-03T12:59:24.246Z,5528.00
2018-08-03T13:00:24.233Z,6180.00
2018-08-03T13:01:24.219Z,6324.00
2018-08-03T13:02:24.207Z,6216.00
2018-08-03T13:03:24.246Z,5904.00
2018-08-03T13:04:24.189Z,5880.00
2018-08-03T13:05:24.184Z,5764.00
2018-08-03T13:06:24.178Z,4396.00
2018-08-03T13:07:24.396Z,3400.00
2018-08-03T13:08:24.343Z,2892.00
2018-08-03T13:09:24.142Z,2744.00
2018-08-03T13:10:24.135Z,2784.00
2018-08-03T13:11:24.118Z,2652.00
2018-08-03T13:12:24.115Z,2488.00
2018-08-03T13:13:24.147Z,2240.00
2018-08-03T13:14:24.085Z,2552.00
2018-08-03T13:15:24.080Z,2780.00
2018-08-03T13:16:24.074Z,3080.00
2018-08-03T13:17:24.056Z,3436.00
2018-08-03T13:18:24.098Z,3232.00
2018-08-03T13:19:24.040Z,3280.00
2018-08-03T13:20:24.026Z,3648.00
2018-08-03T13:21:24.104Z,4100.00
2018-08-03T13:22:24.005Z,4044.00